Terminal Aerodrome Forecast
Issued by NWS Sterling, VA

Current Version | Previous Version | Text Only | Print | Product List | Glossary Off
Versions: 1 2 3 4 5 6 7 8 9 10 11 12 13 14 15 16 17 18 19 20 21 22 23 24 25 26

000
FTUS41 KLWX 282325
TAFIAD
TAF
KIAD 282325Z 0100/0206 VRB04KT 5SM -SHRA OVC035
     FM010400 19008KT P6SM SCT008 BKN130
     FM011400 21013G25KT P6SM BKN025 BKN130
     FM011800 21016G32KT 6SM -SHRA VCTS BKN050CB BKN130
     FM012200 23016G32KT P6SM BKN050 BKN130
     FM020500 27017G32KT P6SM SCT050=

USA.gov is the U.S. government's official web portal to all federal, state and local government web resources and services.